Time;durP1;ratioP1;P1;durP2;ratioP2;P2;SDS_P1;SDS_P2;PMS_P1;PMS_P2;Temp;Humidity;BMP_temperature;BMP_pressure;BME280_temperature;BME280_humidity;BME280_pressure;Samples;Min_cycle;Max_cycle;Signal;HPM_P1;HPM_P2
2021/03/03 00:00:53;;;;;;;47.95;19.38;;;;;;;-141.50;100.00;63355.56;4991606;28;20042;-79
2021/03/03 00:03:20;;;;;;;41.65;18.77;;;;;;;-141.50;100.00;63355.56;4991313;28;20457;-78
2021/03/03 00:05:47;;;;;;;42.08;16.98;;;;;;;-141.50;100.00;63355.56;4976299;28;20597;-80
2021/03/03 00:08:13;;;;;;;42.75;17.88;;;;;;;-141.50;100.00;63355.56;4991042;28;20585;-79
2021/03/03 00:10:39;;;;;;;43.50;17.88;;;;;;;-141.50;100.00;63355.56;4975878;28;20441;-80
2021/03/03 00:13:08;;;;;;;40.38;18.05;;;;;;;-141.50;100.00;63355.56;4992438;28;20053;-79
2021/03/03 00:15:35;;;;;;;41.33;17.35;;;;;;;-141.50;100.00;63355.56;4992082;28;20046;-80
2021/03/03 00:18:01;;;;;;;47.78;18.17;;;;;;;-141.50;100.00;63355.56;4991033;28;20792;-79
2021/03/03 00:20:27;;;;;;;42.42;17.85;;;;;;;-141.50;100.00;63355.56;4975704;28;20424;-79
2021/03/03 00:22:53;;;;;;;38.88;17.75;;;;;;;-141.50;100.00;63355.56;4991251;28;20053;-79
2021/03/03 00:25:19;;;;;;;45.58;18.42;;;;;;;-141.50;100.00;63355.56;4992488;28;20588;-79
2021/03/03 00:27:46;;;;;;;45.45;18.83;;;;;;;-141.50;100.00;63355.56;4993340;28;20050;-79
2021/03/03 00:30:18;;;;;;;42.70;18.38;;;;;;;-141.50;100.00;63355.56;4976399;28;20469;-80
2021/03/03 00:32:44;;;;;;;41.92;17.02;;;;;;;-141.50;100.00;63355.56;4985018;28;20198;-79
2021/03/03 00:35:13;;;;;;;45.15;18.98;;;;;;;-141.50;100.00;63355.56;4995631;28;20482;-78
2021/03/03 00:37:40;;;;;;;45.58;19.85;;;;;;;-141.50;100.00;63355.56;4994428;28;20082;-78
2021/03/03 00:40:07;;;;;;;43.97;17.90;;;;;;;-141.50;100.00;63355.56;4994968;28;20045;-79
2021/03/03 00:42:34;;;;;;;41.08;17.13;;;;;;;-141.50;100.00;63355.56;4977827;28;20050;-79
2021/03/03 00:45:01;;;;;;;40.40;17.15;;;;;;;-141.50;100.00;63355.56;4995458;28;20057;-79
2021/03/03 00:47:27;;;;;;;37.65;15.35;;;;;;;-141.50;100.00;63355.56;4995721;28;20054;-79
2021/03/03 00:49:54;;;;;;;42.15;16.30;;;;;;;-141.50;100.00;63355.56;4996430;28;20062;-80
2021/03/03 00:52:20;;;;;;;35.67;15.48;;;;;;;-141.50;100.00;63355.56;4979880;28;20034;-79
2021/03/03 00:54:47;;;;;;;32.20;14.98;;;;;;;-141.50;100.00;63355.56;4995971;28;20129;-78
2021/03/03 00:57:13;;;;;;;35.78;15.43;;;;;;;-141.50;100.00;63355.56;4979238;28;20038;-78
2021/03/03 00:59:39;;;;;;;35.90;15.75;;;;;;;-141.50;100.00;63355.56;4987555;28;20042;-79
2021/03/03 01:02:05;;;;;;;37.03;16.30;;;;;;;-141.50;100.00;63355.56;4998150;28;20038;-78
2021/03/03 01:04:32;;;;;;;38.47;15.25;;;;;;;-141.50;100.00;63355.56;4996936;28;20156;-79
2021/03/03 01:06:58;;;;;;;38.65;15.40;;;;;;;-141.50;100.00;63355.56;4995972;28;20056;-79
2021/03/03 01:09:24;;;;;;;39.83;15.68;;;;;;;-141.50;100.00;63355.56;4979585;28;20053;-78
2021/03/03 01:11:50;;;;;;;37.60;15.55;;;;;;;-141.50;100.00;63355.56;5004018;28;20038;-78
2021/03/03 01:14:17;;;;;;;37.17;15.93;;;;;;;-141.50;100.00;63355.56;5020317;28;20046;-79
2021/03/03 01:16:49;;;;;;;40.38;15.48;;;;;;;-141.50;100.00;63355.56;5020182;28;20125;-78
2021/03/03 01:19:16;;;;;;;36.65;15.02;;;;;;;-141.50;100.00;63355.56;5020052;28;20037;-79
2021/03/03 01:21:42;;;;;;;39.67;15.48;;;;;;;-141.50;100.00;63355.56;5018934;28;20030;-78
2021/03/03 01:24:09;;;;;;;37.28;15.35;;;;;;;-141.50;100.00;63355.56;5015983;28;20053;-80
2021/03/03 01:26:35;;;;;;;35.67;14.80;;;;;;;-141.50;100.00;63355.56;4999635;28;20052;-79
2021/03/03 01:29:02;;;;;;;38.67;14.88;;;;;;;-141.50;100.00;63355.56;5016411;28;20265;-80
2021/03/03 01:31:28;;;;;;;37.20;15.68;;;;;;;-141.50;100.00;63355.56;4988085;28;20073;-79
2021/03/03 01:33:54;;;;;;;37.08;14.65;;;;;;;-141.50;100.00;63355.56;4997488;28;20057;-80
2021/03/03 01:36:23;;;;;;;34.35;15.70;;;;;;;-141.50;100.00;63355.56;4996735;28;20595;-79
2021/03/03 01:38:50;;;;;;;32.47;14.55;;;;;;;-141.50;100.00;63355.56;5005284;28;20383;-78
2021/03/03 01:41:19;;;;;;;36.38;14.88;;;;;;;-141.50;100.00;63355.56;4994824;28;20046;-79
2021/03/03 01:43:45;;;;;;;38.17;14.05;;;;;;;-141.50;100.00;63355.56;4976804;28;20046;-79
2021/03/03 01:46:11;;;;;;;34.05;14.43;;;;;;;-141.50;100.00;63355.56;4977302;28;20049;-78
2021/03/03 01:48:38;;;;;;;34.55;14.35;;;;;;;-141.50;100.00;63355.56;4995161;28;20039;-79
2021/03/03 01:51:06;;;;;;;35.20;14.82;;;;;;;-141.50;100.00;63355.56;4999744;28;20038;-79
2021/03/03 01:53:32;;;;;;;37.20;14.68;;;;;;;-141.50;100.00;63355.56;5001428;28;20057;-79
2021/03/03 01:55:59;;;;;;;36.63;14.15;;;;;;;-141.50;100.00;63355.56;5002725;28;20050;-79
2021/03/03 01:58:28;;;;;;;33.20;14.45;;;;;;;-141.50;100.00;63355.56;5003784;28;20498;-78
2021/03/03 02:01:14;;;;;;;39.15;14.35;;;;;;;-141.50;100.00;63355.56;4986861;28;20046;-78
2021/03/03 02:03:41;;;;;;;31.67;14.32;;;;;;;-141.50;100.00;63355.56;4986389;28;20081;-78
2021/03/03 02:06:33;;;;;;;31.67;13.70;;;;;;;-141.50;100.00;63355.56;5003754;28;20050;-78
2021/03/03 02:09:46;;;;;;;34.92;14.48;;;;;;;-141.50;100.00;63355.56;5012790;28;20034;-79
2021/03/03 02:12:18;;;;;;;32.10;13.32;;;;;;;-141.50;100.00;63355.56;4997694;28;20052;-80
2021/03/03 02:14:53;;;;;;;36.42;13.85;;;;;;;-141.50;100.00;63355.56;5000359;28;20062;-78
2021/03/03 02:17:23;;;;;;;34.83;14.55;;;;;;;-141.50;100.00;63355.56;5009419;28;20486;-79
2021/03/03 02:19:50;;;;;;;28.63;13.38;;;;;;;-141.50;100.00;63355.56;5000533;28;20053;-80
2021/03/03 02:22:19;;;;;;;30.88;13.63;;;;;;;-141.50;100.00;63355.56;4994986;28;20061;-77
2021/03/03 02:24:56;;;;;;;32.03;12.95;;;;;;;-141.50;100.00;63355.56;4996880;28;20050;-79
2021/03/03 02:27:23;;;;;;;35.40;14.10;;;;;;;-141.50;100.00;63355.56;4996057;28;20042;-79
2021/03/03 02:29:51;;;;;;;31.00;12.80;;;;;;;-141.50;100.00;63355.56;4996229;28;20035;-80
2021/03/03 02:32:19;;;;;;;33.50;14.48;;;;;;;-141.50;100.00;63355.56;4976493;28;20043;-81
2021/03/03 02:34:46;;;;;;;30.52;13.48;;;;;;;-141.50;100.00;63355.56;4994349;28;20466;-80
2021/03/03 02:37:17;;;;;;;28.38;12.32;;;;;;;-141.50;100.00;63355.56;4995507;28;20505;-79
2021/03/03 02:39:44;;;;;;;25.45;11.60;;;;;;;-141.50;100.00;63355.56;4996184;28;20406;-79
2021/03/03 02:42:12;;;;;;;31.20;12.77;;;;;;;-141.50;100.00;63355.56;4995238;28;20048;-79
2021/03/03 02:44:40;;;;;;;28.15;11.93;;;;;;;-141.50;100.00;63355.56;4989648;28;20042;-79
2021/03/03 02:47:06;;;;;;;25.63;11.02;;;;;;;-141.50;100.00;63355.56;4979927;28;20490;-79
2021/03/03 02:49:35;;;;;;;29.85;11.13;;;;;;;-141.50;100.00;63355.56;4997419;28;20047;-79
2021/03/03 02:52:01;;;;;;;27.40;11.38;;;;;;;-141.50;100.00;63355.56;4994874;28;20524;-79
2021/03/03 02:54:27;;;;;;;23.63;11.20;;;;;;;-141.50;100.00;63355.56;4993155;28;20054;-78
2021/03/03 02:56:55;;;;;;;27.08;10.57;;;;;;;-141.50;100.00;63355.56;4991690;28;20072;-80
2021/03/03 02:59:40;;;;;;;24.42;10.43;;;;;;;-141.50;100.00;63355.56;5002389;28;20047;-78
2021/03/03 03:02:10;;;;;;;25.20;10.13;;;;;;;-141.50;100.00;63355.56;5005824;28;20050;-79
2021/03/03 03:04:39;;;;;;;23.33;10.35;;;;;;;-141.50;100.00;63355.56;4977466;28;20231;-79
2021/03/03 03:07:13;;;;;;;26.95;9.88;;;;;;;-141.50;100.00;63355.56;4995428;28;20065;-80
2021/03/03 03:09:43;;;;;;;25.92;10.38;;;;;;;-141.50;100.00;63355.56;5000370;28;20046;-79
2021/03/03 03:12:11;;;;;;;22.40;9.57;;;;;;;-141.50;100.00;63355.56;4982457;28;20516;-78
2021/03/03 03:14:37;;;;;;;25.42;10.95;;;;;;;-141.50;100.00;63355.56;5004712;28;20054;-78
2021/03/03 03:17:07;;;;;;;24.20;10.43;;;;;;;-141.50;100.00;63355.56;5002162;28;20053;-79
2021/03/03 03:19:45;;;;;;;19.90;9.13;;;;;;;-141.50;100.00;63355.56;5003857;28;20129;-80
2021/03/03 03:22:14;;;;;;;19.15;8.93;;;;;;;-141.50;100.00;63355.56;4997451;28;20061;-79
2021/03/03 03:24:44;;;;;;;19.77;9.38;;;;;;;-141.50;100.00;63355.56;4999716;28;20042;-79
2021/03/03 03:27:11;;;;;;;21.58;9.15;;;;;;;-141.50;100.00;63355.56;4980488;28;20042;-81
2021/03/03 03:29:43;;;;;;;21.08;9.13;;;;;;;-141.50;100.00;63355.56;4994179;28;20406;-79
2021/03/03 03:32:22;;;;;;;22.92;10.18;;;;;;;-141.50;100.00;63355.56;4996261;28;20046;-78
2021/03/03 03:34:49;;;;;;;21.27;8.75;;;;;;;-141.50;100.00;63355.56;4976982;28;20061;-80
2021/03/03 03:37:16;;;;;;;22.25;8.77;;;;;;;-141.50;100.00;63355.56;4993287;28;20053;-80
2021/03/03 03:39:42;;;;;;;21.17;8.73;;;;;;;-141.50;100.00;63355.56;4975426;28;20052;-79
2021/03/03 03:42:10;;;;;;;20.08;8.10;;;;;;;-141.50;100.00;63355.56;4993324;28;20050;-80
2021/03/03 03:44:39;;;;;;;22.08;9.18;;;;;;;-141.50;100.00;63355.56;4993772;28;20125;-80
2021/03/03 03:47:09;;;;;;;21.70;9.23;;;;;;;-141.50;100.00;63355.56;4994351;28;20110;-79
2021/03/03 03:49:35;;;;;;;22.92;9.20;;;;;;;-141.50;100.00;63355.56;4963033;28;20085;-78
2021/03/03 03:52:01;;;;;;;19.10;8.82;;;;;;;-141.50;100.00;63355.56;4993605;28;20046;-79
2021/03/03 03:54:28;;;;;;;22.27;9.70;;;;;;;-141.50;100.00;63355.56;4978685;28;20523;-79
2021/03/03 03:56:54;;;;;;;24.02;10.45;;;;;;;-141.50;100.00;63355.56;4996384;28;20084;-79
2021/03/03 03:59:20;;;;;;;23.45;9.00;;;;;;;-141.50;100.00;63355.56;4982533;28;20513;-78
2021/03/03 04:01:47;;;;;;;18.77;8.45;;;;;;;-141.50;100.00;63355.56;4989000;28;20052;-80
2021/03/03 04:04:13;;;;;;;20.25;9.15;;;;;;;-141.50;100.00;63355.56;4966022;28;20084;-80
2021/03/03 04:06:39;;;;;;;21.98;8.80;;;;;;;-141.50;100.00;63355.56;4994401;28;20050;-80
2021/03/03 04:09:05;;;;;;;21.05;9.07;;;;;;;-141.50;100.00;63355.56;4995345;28;20046;-80
2021/03/03 04:11:32;;;;;;;21.40;8.43;;;;;;;-141.50;100.00;63355.56;4994757;28;20616;-81
2021/03/03 04:13:58;;;;;;;22.05;9.10;;;;;;;-141.50;100.00;63355.56;4976443;28;20056;-80
2021/03/03 04:16:24;;;;;;;21.48;8.48;;;;;;;-141.50;100.00;63355.56;4994259;28;20406;-78
2021/03/03 04:18:50;;;;;;;16.98;7.97;;;;;;;-141.50;100.00;63355.56;4994789;28;20065;-79
2021/03/03 04:21:17;;;;;;;18.55;8.10;;;;;;;-141.50;100.00;63355.56;4978540;28;20854;-80
2021/03/03 04:23:47;;;;;;;22.77;8.77;;;;;;;-141.50;100.00;63355.56;4994765;28;20080;-81
2021/03/03 04:26:13;;;;;;;21.52;8.63;;;;;;;-141.50;100.00;63355.56;4976817;28;20049;-80
2021/03/03 04:28:39;;;;;;;22.23;8.77;;;;;;;-141.50;100.00;63355.56;4996706;23;20050;-80
2021/03/03 04:31:06;;;;;;;21.77;9.13;;;;;;;-141.50;100.00;63355.56;4995372;28;20045;-80
2021/03/03 04:33:32;;;;;;;25.15;8.85;;;;;;;-141.50;100.00;63355.56;5029046;28;20390;-80
2021/03/03 04:35:59;;;;;;;21.98;8.43;;;;;;;-141.50;100.00;63355.56;4993928;28;20424;-81
2021/03/03 04:38:26;;;;;;;20.58;8.90;;;;;;;-141.50;100.00;63355.56;5011881;28;20057;-83
2021/03/03 04:40:52;;;;;;;20.75;8.45;;;;;;;-141.50;100.00;63355.56;5030006;28;20049;-81
2021/03/03 04:43:18;;;;;;;18.13;8.63;;;;;;;-141.50;100.00;63355.56;5012019;28;20120;-81
2021/03/03 04:45:45;;;;;;;19.75;8.20;;;;;;;-141.50;100.00;63355.56;5029713;28;20041;-80
2021/03/03 04:48:12;;;;;;;19.73;8.25;;;;;;;-141.50;100.00;63355.56;5012395;28;20141;-81
2021/03/03 04:50:39;;;;;;;20.10;7.68;;;;;;;-141.50;100.00;63355.56;4992345;28;20061;-80
2021/03/03 04:53:06;;;;;;;21.15;8.13;;;;;;;-141.50;100.00;63355.56;5010655;28;20152;-79
2021/03/03 04:55:32;;;;;;;17.92;8.00;;;;;;;-141.50;100.00;63355.56;4993529;28;20481;-79
2021/03/03 04:57:59;;;;;;;17.98;7.80;;;;;;;-141.50;100.00;63355.56;5010181;28;20151;-80
2021/03/03 05:00:25;;;;;;;18.42;7.40;;;;;;;-141.50;100.00;63355.56;5013119;28;20120;-79
2021/03/03 05:02:52;;;;;;;18.00;8.02;;;;;;;-141.50;100.00;63355.56;5011443;28;20045;-82
2021/03/03 05:05:19;;;;;;;20.98;7.72;;;;;;;-141.50;100.00;63355.56;5013184;28;20093;-80
2021/03/03 05:07:45;;;;;;;17.38;6.97;;;;;;;-141.50;100.00;63355.56;5011031;28;20133;-80
2021/03/03 05:10:12;;;;;;;15.70;7.28;;;;;;;-141.50;100.00;63355.56;5014297;28;20085;-83
2021/03/03 05:12:38;;;;;;;21.83;7.55;;;;;;;-141.50;100.00;63355.56;5040868;28;20373;-85
2021/03/03 05:15:05;;;;;;;16.27;7.13;;;;;;;-141.50;100.00;63355.56;5011700;28;20064;-79
2021/03/03 05:17:31;;;;;;;18.38;7.20;;;;;;;-141.50;100.00;63355.56;5011007;28;20050;-80
2021/03/03 05:19:57;;;;;;;15.63;7.50;;;;;;;-141.50;100.00;63355.56;5015050;28;20228;-79
2021/03/03 05:22:24;;;;;;;18.42;7.72;;;;;;;-141.50;100.00;63355.56;5031801;28;20463;-80
2021/03/03 05:24:50;;;;;;;19.65;7.82;;;;;;;-141.50;100.00;63355.56;5032790;28;20053;-81
2021/03/03 05:27:20;;;;;;;21.45;8.15;;;;;;;-141.50;100.00;63355.56;5031104;28;20072;-79
2021/03/03 05:29:47;;;;;;;21.48;8.05;;;;;;;-141.50;100.00;63355.56;5012924;28;20512;-80
2021/03/03 05:32:13;;;;;;;18.38;7.32;;;;;;;-141.50;100.00;63355.56;5026143;28;20056;-81
2021/03/03 05:34:39;;;;;;;18.33;8.05;;;;;;;-141.50;100.00;63355.56;4996521;28;20140;-79
2021/03/03 05:37:05;;;;;;;19.38;7.65;;;;;;;-141.50;100.00;63355.56;5030503;28;20097;-79
2021/03/03 05:39:32;;;;;;;18.05;7.70;;;;;;;-141.50;100.00;63355.56;5032257;28;20037;-78
2021/03/03 05:42:02;;;;;;;16.70;7.22;;;;;;;-141.50;100.00;63355.56;5014697;28;20365;-82
2021/03/03 05:44:29;;;;;;;17.58;7.13;;;;;;;-141.50;100.00;63355.56;5031618;28;20120;-79
2021/03/03 05:46:57;;;;;;;18.05;7.60;;;;;;;-141.50;100.00;63355.56;5027791;28;20117;-79
2021/03/03 05:49:28;;;;;;;19.35;7.20;;;;;;;-141.50;100.00;63355.56;5030237;28;20037;-80
2021/03/03 05:51:54;;;;;;;17.73;7.05;;;;;;;-141.50;100.00;63355.56;5031751;28;20135;-80
2021/03/03 05:54:21;;;;;;;18.45;7.57;;;;;;;-141.50;100.00;63355.56;5013468;28;20112;-79
2021/03/03 05:56:48;;;;;;;20.08;7.05;;;;;;;-141.50;100.00;63355.56;5013711;28;20357;-79
2021/03/03 05:59:16;;;;;;;19.42;7.55;;;;;;;-141.50;100.00;63355.56;5012428;28;20057;-81
2021/03/03 06:01:45;;;;;;;19.42;7.18;;;;;;;-141.50;100.00;63355.56;5013034;28;20068;-82
2021/03/03 06:04:21;;;;;;;20.73;7.47;;;;;;;-141.50;100.00;63355.56;4998868;28;20049;-79
2021/03/03 06:06:47;;;;;;;19.73;8.50;;;;;;;-141.50;100.00;63355.56;5013658;28;20056;-82
2021/03/03 06:09:14;;;;;;;20.38;7.88;;;;;;;-141.50;100.00;63355.56;5006423;28;20108;-79
2021/03/03 06:11:40;;;;;;;17.25;7.05;;;;;;;-141.50;100.00;63355.56;4977030;28;20062;-80
2021/03/03 06:14:08;;;;;;;15.38;6.50;;;;;;;-141.50;100.00;63355.56;5027357;28;20053;-80
2021/03/03 06:16:35;;;;;;;23.63;7.00;;;;;;;-141.50;100.00;63355.56;5034601;28;20060;-79
2021/03/03 06:19:04;;;;;;;17.60;6.53;;;;;;;-141.50;100.00;63355.56;5012149;28;20151;-80
2021/03/03 06:21:32;;;;;;;14.98;6.35;;;;;;;-141.50;100.00;63355.56;5008202;28;20052;-79
2021/03/03 06:24:03;;;;;;;15.55;6.13;;;;;;;-141.50;100.00;63355.56;5013519;28;20101;-79
2021/03/03 06:26:30;;;;;;;16.88;6.00;;;;;;;-141.50;100.00;63355.56;5031542;28;20122;-79
2021/03/03 06:28:56;;;;;;;15.60;6.38;;;;;;;-141.50;100.00;63355.56;5012943;28;20067;-81
2021/03/03 06:31:37;;;;;;;18.63;6.82;;;;;;;-141.50;100.00;63355.56;4997442;28;20049;-78
2021/03/03 06:34:17;;;;;;;15.45;7.50;;;;;;;-141.50;100.00;63355.56;5031071;28;20388;-82
2021/03/03 06:36:46;;;;;;;22.08;8.02;;;;;;;-141.50;100.00;63355.56;5014003;28;20561;-81
2021/03/03 06:39:17;;;;;;;25.88;7.95;;;;;;;-141.50;100.00;63355.56;5032499;28;20551;-80
2021/03/03 06:41:43;;;;;;;17.33;7.60;;;;;;;-141.50;100.00;63355.56;4999070;28;20041;-82
2021/03/03 06:44:09;;;;;;;19.80;7.45;;;;;;;-141.50;100.00;63355.56;5013662;28;20388;-81
2021/03/03 06:46:36;;;;;;;22.63;7.43;;;;;;;-141.50;100.00;63355.56;5031391;28;20556;-80
2021/03/03 06:49:03;;;;;;;22.17;8.00;;;;;;;-141.50;100.00;63355.56;5032243;28;20061;-80
2021/03/03 06:51:35;;;;;;;17.08;7.82;;;;;;;-141.50;100.00;63355.56;4992854;28;20113;-80
2021/03/03 06:54:16;;;;;;;19.98;7.65;;;;;;;-141.50;100.00;63355.56;5008750;28;20082;-80
2021/03/03 06:56:46;;;;;;;19.23;7.38;;;;;;;-141.50;100.00;63355.56;5012874;28;20050;-81
2021/03/03 06:59:18;;;;;;;22.70;7.45;;;;;;;-141.50;100.00;63355.56;4993477;28;20050;-81
2021/03/03 07:02:01;;;;;;;25.65;8.48;;;;;;;-141.50;100.00;63355.56;5012144;28;20042;-81
2021/03/03 07:04:33;;;;;;;25.58;8.48;;;;;;;-141.50;100.00;63355.56;5017613;28;20064;-81
2021/03/03 07:07:02;;;;;;;24.00;8.55;;;;;;;-141.50;100.00;63355.56;4996982;28;20042;-81
2021/03/03 07:09:37;;;;;;;19.38;8.13;;;;;;;-141.50;100.00;63355.56;5015850;28;20042;-80
2021/03/03 07:12:07;;;;;;;22.55;8.77;;;;;;;-141.50;100.00;63355.56;5013423;28;20045;-81
2021/03/03 07:14:33;;;;;;;23.80;8.95;;;;;;;-141.50;100.00;63355.56;5012862;28;20052;-81
2021/03/03 07:17:14;;;;;;;20.63;8.35;;;;;;;-141.50;100.00;63355.56;4995606;28;20392;-80
2021/03/03 07:19:46;;;;;;;21.55;8.50;;;;;;;-141.50;100.00;63355.56;4982077;28;20249;-80
2021/03/03 07:22:22;;;;;;;17.60;8.27;;;;;;;-141.50;100.00;63355.56;5015127;28;20042;-79
2021/03/03 07:24:58;;;;;;;18.67;8.20;;;;;;;-141.50;100.00;63355.56;5012295;28;20064;-79
2021/03/03 07:27:25;;;;;;;21.75;9.52;;;;;;;-141.50;100.00;63355.56;5014101;28;20183;-79
2021/03/03 07:30:11;;;;;;;23.42;8.95;;;;;;;-141.50;100.00;63355.56;5011411;28;20057;-79
2021/03/03 07:32:37;;;;;;;;;;;;;;;-141.50;100.00;63355.56;4995311;28;20068;-79
2021/03/03 07:35:24;;;;;;;20.98;8.88;;;;;;;-141.50;100.00;63355.56;5013418;28;19929;-80
2021/03/03 07:37:56;;;;;;;22.52;9.52;;;;;;;-141.50;100.00;63355.56;5013001;28;20050;-83
2021/03/03 07:40:30;;;;;;;25.27;9.65;;;;;;;-141.50;100.00;63355.56;5014815;28;20046;-83
2021/03/03 07:43:01;;;;;;;14.63;7.50;;;;;;;-141.50;100.00;63355.56;5014078;28;20042;-82
2021/03/03 07:45:39;;;;;;;20.65;10.13;;;;;;;-141.50;100.00;63355.56;5018125;28;20067;-82
2021/03/03 07:48:08;;;;;;;25.38;11.98;;;;;;;-141.50;100.00;63355.56;5012700;28;20049;-81
2021/03/03 07:50:35;;;;;;;29.52;11.57;;;;;;;-141.50;100.00;63355.56;5023825;28;20045;-81
2021/03/03 07:53:02;;;;;;;24.67;11.60;;;;;;;-141.50;100.00;63355.56;5014488;28;20042;-82
2021/03/03 07:55:30;;;;;;;27.92;11.80;;;;;;;-141.50;100.00;63355.56;5012017;28;20050;-83
2021/03/03 07:57:59;;;;;;;34.55;12.18;;;;;;;-141.50;100.00;63355.56;5011532;28;20059;-81
2021/03/03 08:00:33;;;;;;;29.58;11.80;;;;;;;-141.50;100.00;63355.56;5032473;28;20044;-82
2021/03/03 08:03:03;;;;;;;27.77;13.27;;;;;;;-141.50;100.00;63355.56;5032943;28;20042;-81
2021/03/03 08:05:49;;;;;;;32.85;13.48;;;;;;;-141.50;100.00;63355.56;5018937;28;20037;-81
2021/03/03 08:08:30;;;;;;;28.95;13.50;;;;;;;-141.50;100.00;63355.56;5035796;28;20093;-80
2021/03/03 08:10:59;;;;;;;28.33;13.73;;;;;;;-141.50;100.00;63355.56;5002271;28;20120;-83
2021/03/03 08:13:34;;;;;;;32.60;13.25;;;;;;;-141.50;100.00;63355.56;5039631;28;20105;-84
2021/03/03 08:16:07;;;;;;;29.63;14.05;;;;;;;-141.50;100.00;63355.56;5036654;28;20137;-81
2021/03/03 08:18:49;;;;;;;28.05;12.63;;;;;;;-141.50;100.00;63355.56;5034557;28;20416;-80
2021/03/03 08:21:15;;;;;;;28.40;13.07;;;;;;;-141.50;100.00;63355.56;5033788;28;20045;-79
2021/03/03 08:23:50;;;;;;;30.83;13.20;;;;;;;-141.50;100.00;63355.56;5015611;28;20049;-80
2021/03/03 08:26:17;;;;;;;26.90;12.48;;;;;;;-141.50;100.00;63355.56;5034112;28;20076;-82
2021/03/03 08:28:44;;;;;;;29.30;13.73;;;;;;;-141.50;100.00;63355.56;5014716;28;20076;-80
2021/03/03 08:31:10;;;;;;;28.88;13.30;;;;;;;-141.50;100.00;63355.56;5032337;28;20045;-81
2021/03/03 08:33:45;;;;;;;29.02;13.27;;;;;;;-141.50;100.00;63355.56;5014898;28;20095;-81
2021/03/03 08:36:17;;;;;;;29.95;13.40;;;;;;;-141.50;100.00;63355.56;5016036;28;20388;-80
2021/03/03 08:39:09;;;;;;;30.25;12.75;;;;;;;-141.50;100.00;63355.56;4998391;28;20136;-82
2021/03/03 08:41:37;;;;;;;25.95;12.65;;;;;;;-141.50;100.00;63355.56;5017708;28;20064;-83
2021/03/03 08:44:10;;;;;;;26.65;13.20;;;;;;;-141.50;100.00;63355.56;5031874;28;20094;-81
2021/03/03 08:46:45;;;;;;;26.25;12.80;;;;;;;-141.50;100.00;63355.56;5032834;28;20499;-79
2021/03/03 08:49:12;;;;;;;27.65;12.98;;;;;;;-141.50;100.00;63355.56;5030734;28;20056;-81
2021/03/03 08:51:42;;;;;;;25.60;13.05;;;;;;;-141.50;100.00;63355.56;5012931;28;20057;-80
2021/03/03 08:54:11;;;;;;;26.08;12.32;;;;;;;-141.50;100.00;63355.56;5033961;28;20136;-81
2021/03/03 08:56:45;;;;;;;30.10;13.27;;;;;;;-141.50;100.00;63355.56;5014867;28;20133;-82
2021/03/03 08:59:37;;;;;;;29.05;13.52;;;;;;;-141.50;100.00;63355.56;5031558;28;20055;-80
2021/03/03 09:02:06;;;;;;;29.17;13.10;;;;;;;-141.50;100.00;63355.56;5012012;28;20130;-81
2021/03/03 09:04:34;;;;;;;26.45;12.98;;;;;;;-141.50;100.00;63355.56;5030909;28;20041;-80
2021/03/03 09:07:06;;;;;;;31.30;13.32;;;;;;;-141.50;100.00;63355.56;5014494;28;20052;-80
2021/03/03 09:09:49;;;;;;;25.13;12.30;;;;;;;-141.50;100.00;63355.56;5033426;28;20288;-81
2021/03/03 09:12:18;;;;;;;28.77;12.85;;;;;;;-141.50;100.00;63355.56;5011409;28;20055;-81
2021/03/03 09:14:46;;;;;;;23.17;12.35;;;;;;;-141.50;100.00;63355.56;5012324;28;20085;-80
2021/03/03 09:17:25;;;;;;;24.63;12.48;;;;;;;-141.50;100.00;63355.56;5029064;28;20378;-81
2021/03/03 09:20:00;;;;;;;26.45;12.98;;;;;;;-141.50;100.00;63355.56;5031708;28;20068;-82
2021/03/03 09:22:32;;;;;;;28.65;12.98;;;;;;;-141.50;100.00;63355.56;5014812;28;20046;-79
2021/03/03 09:25:12;;;;;;;24.00;11.82;;;;;;;-141.50;100.00;63355.56;5016945;28;20405;-81
2021/03/03 09:27:59;;;;;;;27.30;12.18;;;;;;;-141.50;100.00;63355.56;5016785;28;20049;-81
2021/03/03 09:30:37;;;;;;;28.42;12.68;;;;;;;-141.50;100.00;63355.56;5016800;28;20045;-80
2021/03/03 09:33:07;;;;;;;23.98;12.55;;;;;;;-141.50;100.00;63355.56;5034212;28;20064;-83
2021/03/03 09:35:35;;;;;;;29.38;12.50;;;;;;;-141.50;100.00;63355.56;5016252;28;20384;-80
2021/03/03 09:38:02;;;;;;;26.00;12.60;;;;;;;-141.50;100.00;63355.56;5035221;28;20057;-81
2021/03/03 09:40:32;;;;;;;24.48;12.18;;;;;;;-141.50;100.00;63355.56;5017989;28;20481;-81
2021/03/03 09:42:59;;;;;;;25.70;13.00;;;;;;;-141.50;100.00;63355.56;5036280;28;20056;-83
2021/03/03 09:45:26;;;;;;;28.63;12.25;;;;;;;-141.50;100.00;63355.56;5018802;28;20125;-81
2021/03/03 09:47:56;;;;;;;24.45;12.15;;;;;;;-141.50;100.00;63355.56;5024727;28;20049;-83
2021/03/03 09:50:25;;;;;;;25.48;13.32;;;;;;;-141.50;100.00;63355.56;5032313;28;20065;-80
2021/03/03 09:52:56;;;;;;;24.27;12.95;;;;;;;-141.50;100.00;63355.56;5031937;28;20071;-83
2021/03/03 09:55:33;;;;;;;25.40;12.18;;;;;;;-141.50;100.00;63355.56;4997637;28;20088;-80
2021/03/03 09:58:01;;;;;;;26.67;13.82;;;;;;;-141.50;100.00;63355.56;5013554;28;20053;-81
2021/03/03 10:00:30;;;;;;;25.50;13.27;;;;;;;-141.50;100.00;63355.56;5029739;28;20053;-80
2021/03/03 10:02:59;;;;;;;23.67;13.45;;;;;;;-141.50;100.00;63355.56;5011579;28;20048;-81
2021/03/03 10:05:31;;;;;;;26.58;13.60;;;;;;;-141.50;100.00;63355.56;5012447;28;20202;-80
2021/03/03 10:07:59;;;;;;;27.02;14.18;;;;;;;-141.50;100.00;63355.56;5029945;28;20472;-80
2021/03/03 10:10:29;;;;;;;24.48;13.50;;;;;;;-141.50;100.00;63355.56;5030844;28;20045;-83
2021/03/03 10:12:56;;;;;;;25.33;13.75;;;;;;;-141.50;100.00;63355.56;5023269;22;20101;-79
2021/03/03 10:15:36;;;;;;;27.45;14.13;;;;;;;-141.50;100.00;63355.56;4955310;29;20047;-81
2021/03/03 10:18:10;;;;;;;29.30;13.73;;;;;;;-141.50;100.00;63355.56;4955168;29;20102;-77
2021/03/03 10:20:42;;;;;;;28.83;14.02;;;;;;;-141.50;100.00;63355.56;4938443;29;20043;-78
2021/03/03 10:23:15;;;;;;;25.92;13.70;;;;;;;-141.50;100.00;63355.56;4920177;29;20443;-77
2021/03/03 10:26:12;;;;;;;26.15;13.70;;;;;;;-141.50;100.00;63355.56;4920345;29;20519;-78
2021/03/03 10:28:39;;;;;;;29.63;14.50;;;;;;;-141.50;100.00;63355.56;4901918;29;20052;-81
2021/03/03 10:31:08;;;;;;;23.60;13.63;;;;;;;-141.50;100.00;63355.56;4935656;29;20044;-79
2021/03/03 10:33:40;;;;;;;28.70;13.85;;;;;;;-141.50;100.00;63355.56;4919034;29;20047;-78
2021/03/03 10:36:20;;;;;;;22.52;13.15;;;;;;;-141.50;100.00;63355.56;4937333;29;20126;-80
2021/03/03 10:38:56;;;;;;;24.70;14.02;;;;;;;-141.50;100.00;63355.56;4919164;29;20055;-80
2021/03/03 10:41:33;;;;;;;25.73;14.48;;;;;;;-141.50;100.00;63355.56;4920347;29;20264;-79
2021/03/03 10:44:05;;;;;;;23.08;13.32;;;;;;;-141.50;100.00;63355.56;4918450;29;20060;-79
2021/03/03 10:46:32;;;;;;;24.75;13.55;;;;;;;-141.50;100.00;63355.56;4936337;29;20071;-80
2021/03/03 10:49:14;;;;;;;24.63;14.05;;;;;;;-141.50;100.00;63355.56;4922809;29;20425;-78
2021/03/03 10:51:40;;;;;;;28.40;14.25;;;;;;;-141.50;100.00;63355.56;4920579;29;20043;-79
2021/03/03 10:54:08;;;;;;;24.13;14.18;;;;;;;-141.50;100.00;63355.56;4921523;29;20054;-79
2021/03/03 10:56:37;;;;;;;28.67;13.43;;;;;;;-141.50;100.00;63355.56;4939883;29;20071;-81
2021/03/03 10:59:10;;;;;;;24.02;13.50;;;;;;;-141.50;100.00;63355.56;4934179;29;20050;-79
2021/03/03 11:01:44;;;;;;;22.90;13.85;;;;;;;-141.50;100.00;63355.56;4939199;29;20091;-79
2021/03/03 11:04:10;;;;;;;26.15;13.75;;;;;;;-141.50;100.00;63355.56;4938365;29;20048;-79
2021/03/03 11:06:38;;;;;;;25.40;14.07;;;;;;;-141.50;100.00;63355.56;4938700;29;20376;-77
2021/03/03 11:09:09;;;;;;;24.85;12.80;;;;;;;-141.50;100.00;63355.56;4923981;29;20400;-80